Time;durP1;ratioP1;P1;durP2;ratioP2;P2;SDS_P1;SDS_P2;PMS_P1;PMS_P2;Temp;Humidity;BMP_temperature;BMP_pressure;BME280_temperature;BME280_humidity;BME280_pressure;Samples;Min_cycle;Max_cycle;Signal;HPM_P1;HPM_P2
2023/06/28 00:00:01;;;;;;;10.68;9.85;;;;;;;;;;4918820;29;20106;-85
2023/06/28 00:02:35;;;;;;;12.50;9.55;;;;;;;;;;4939688;29;20051;-85
2023/06/28 00:05:03;;;;;;;11.10;10.00;;;;;;;;;;4925291;29;20050;-85
2023/06/28 00:07:32;;;;;;;10.65;9.70;;;;;;;;;;4935571;29;20052;-85
2023/06/28 00:09:59;;;;;;;10.68;9.48;;;;;;;;;;4935368;29;20052;-85
2023/06/28 00:12:28;;;;;;;12.13;11.10;;;;;;;;;;4918624;29;20056;-85
2023/06/28 00:14:56;;;;;;;12.77;11.18;;;;;;;;;;4918141;29;20047;-85
2023/06/28 00:17:27;;;;;;;14.20;12.73;;;;;;;;;;4918396;29;20409;-85
2023/06/28 00:19:55;;;;;;;22.73;15.75;;;;;;;;;;4918871;29;20296;-85
2023/06/28 00:22:29;;;;;;;21.92;16.58;;;;;;;;;;4918676;29;20094;-85
2023/06/28 00:24:57;;;;;;;16.42;14.52;;;;;;;;;;4918684;29;20460;-85
2023/06/28 00:27:25;;;;;;;17.50;14.10;;;;;;;;;;4918650;29;20044;-85
2023/06/28 00:29:52;;;;;;;14.05;12.50;;;;;;;;;;4918292;29;20047;-85
2023/06/28 00:32:19;;;;;;;17.50;11.93;;;;;;;;;;4918512;29;20063;-85
2023/06/28 00:34:47;;;;;;;10.77;9.77;;;;;;;;;;4918610;29;20738;-85
2023/06/28 00:37:14;;;;;;;10.30;9.30;;;;;;;;;;4935204;29;20051;-85
2023/06/28 00:39:41;;;;;;;10.98;9.98;;;;;;;;;;4935307;29;20082;-86
2023/06/28 00:42:08;;;;;;;12.68;11.38;;;;;;;;;;4934973;29;20052;-85
2023/06/28 00:44:36;;;;;;;12.10;10.90;;;;;;;;;;4918468;29;20420;-84
2023/06/28 00:47:04;;;;;;;17.73;12.60;;;;;;;;;;4935104;29;20497;-85
2023/06/28 00:49:33;;;;;;;16.42;11.90;;;;;;;;;;4918638;29;20448;-86
2023/06/28 00:52:01;;;;;;;11.82;10.73;;;;;;;;;;4918400;29;20484;-85
2023/06/28 00:54:28;;;;;;;16.50;13.27;;;;;;;;;;4935424;29;20047;-84
2023/06/28 00:56:55;;;;;;;13.25;11.82;;;;;;;;;;4918246;29;20052;-85
2023/06/28 00:59:22;;;;;;;15.00;12.68;;;;;;;;;;4934906;29;20107;-85
2023/06/28 01:01:50;;;;;;;13.73;12.35;;;;;;;;;;4935197;29;20059;-85
2023/06/28 01:04:17;;;;;;;12.93;11.82;;;;;;;;;;4919642;29;20055;-86
2023/06/28 01:06:48;;;;;;;13.40;12.07;;;;;;;;;;4922453;29;20090;-85
2023/06/28 01:09:16;;;;;;;16.38;14.15;;;;;;;;;;4921740;29;20059;-85
2023/06/28 01:11:43;;;;;;;15.05;12.63;;;;;;;;;;4921692;29;20488;-85
2023/06/28 01:14:10;;;;;;;15.88;13.60;;;;;;;;;;4938698;29;20091;-85
2023/06/28 01:16:38;;;;;;;12.73;11.52;;;;;;;;;;4938787;29;20136;-86
2023/06/28 01:19:07;;;;;;;14.65;12.00;;;;;;;;;;4938586;29;20457;-86
2023/06/28 01:21:36;;;;;;;12.88;11.60;;;;;;;;;;4921686;29;20552;-86
2023/06/28 01:24:03;;;;;;;11.98;10.70;;;;;;;;;;4921694;29;20111;-86
2023/06/28 01:26:31;;;;;;;13.13;11.73;;;;;;;;;;4921767;29;20102;-86
2023/06/28 01:28:58;;;;;;;14.48;10.23;;;;;;;;;;4921761;29;20114;-85
2023/06/28 01:31:26;;;;;;;12.30;11.10;;;;;;;;;;4938333;29;20130;-86
2023/06/28 01:33:53;;;;;;;13.40;12.18;;;;;;;;;;4921622;29;20208;-86
2023/06/28 01:36:21;;;;;;;12.73;11.18;;;;;;;;;;4921663;29;20052;-86
2023/06/28 01:38:49;;;;;;;12.65;11.43;;;;;;;;;;4921671;29;20051;-85
2023/06/28 01:41:17;;;;;;;14.98;13.40;;;;;;;;;;4938355;29;20103;-86
2023/06/28 01:43:44;;;;;;;12.85;11.50;;;;;;;;;;4921133;29;20394;-86
2023/06/28 01:46:12;;;;;;;14.75;11.80;;;;;;;;;;4938236;29;20079;-85
2023/06/28 01:48:39;;;;;;;12.90;11.70;;;;;;;;;;4938061;29;20056;-85
2023/06/28 01:51:07;;;;;;;15.25;11.95;;;;;;;;;;4937499;29;20076;-85
2023/06/28 01:53:34;;;;;;;12.13;10.77;;;;;;;;;;4921286;29;20086;-86
2023/06/28 01:56:01;;;;;;;12.77;11.48;;;;;;;;;;4937958;29;20110;-87
2023/06/28 01:58:28;;;;;;;11.85;10.75;;;;;;;;;;4938024;29;20048;-86
2023/06/28 02:00:55;;;;;;;14.98;13.48;;;;;;;;;;4921229;29;20068;-86
2023/06/28 02:03:23;;;;;;;12.75;11.48;;;;;;;;;;4921209;29;20103;-86
2023/06/28 02:05:50;;;;;;;13.35;11.15;;;;;;;;;;4921485;29;20056;-85
2023/06/28 02:08:18;;;;;;;10.73;9.82;;;;;;;;;;4937682;29;20083;-87
2023/06/28 02:10:45;;;;;;;10.75;9.68;;;;;;;;;;4921055;29;20055;-86
2023/06/28 02:13:12;;;;;;;13.65;10.35;;;;;;;;;;4920900;29;20551;-85
2023/06/28 02:15:41;;;;;;;10.20;9.20;;;;;;;;;;4937497;29;20052;-86
2023/06/28 02:18:08;;;;;;;9.77;8.77;;;;;;;;;;4920609;29;20127;-87
2023/06/28 02:20:35;;;;;;;12.32;9.00;;;;;;;;;;4920836;29;20048;-87
2023/06/28 02:23:03;;;;;;;9.27;8.45;;;;;;;;;;4920916;29;20059;-86
2023/06/28 02:25:30;;;;;;;12.52;8.23;;;;;;;;;;4937638;29;20095;-87
2023/06/28 02:27:57;;;;;;;10.38;8.85;;;;;;;;;;4937664;29;20464;-87
2023/06/28 02:30:25;;;;;;;15.45;11.30;;;;;;;;;;4937641;29;20048;-87
2023/06/28 02:32:52;;;;;;;11.32;10.32;;;;;;;;;;4904818;29;20059;-87
2023/06/28 02:35:19;;;;;;;11.55;9.65;;;;;;;;;;4920726;29;20063;-87
2023/06/28 02:37:46;;;;;;;10.70;9.80;;;;;;;;;;4937578;29;20114;-87
2023/06/28 02:40:14;;;;;;;11.40;10.32;;;;;;;;;;4920661;29;20444;-87
2023/06/28 02:42:41;;;;;;;11.10;9.98;;;;;;;;;;4920659;29;20048;-87
2023/06/28 02:45:09;;;;;;;14.23;10.85;;;;;;;;;;4937805;29;20052;-88
2023/06/28 02:47:37;;;;;;;13.63;9.60;;;;;;;;;;4956088;28;20460;-87
2023/06/28 02:50:05;;;;;;;11.70;10.50;;;;;;;;;;4939308;29;20503;-86
2023/06/28 02:52:33;;;;;;;14.63;10.75;;;;;;;;;;4939141;29;20047;-86
2023/06/28 02:55:01;;;;;;;10.75;9.82;;;;;;;;;;4956259;29;20120;-87
2023/06/28 02:57:28;;;;;;;10.88;9.77;;;;;;;;;;4939107;29;20456;-87
2023/06/28 02:59:55;;;;;;;10.90;9.93;;;;;;;;;;4956128;29;20114;-88
2023/06/28 03:02:23;;;;;;;12.18;9.90;;;;;;;;;;4955925;29;20051;-88
2023/06/28 03:04:50;;;;;;;13.02;10.38;;;;;;;;;;4939014;29;20051;-87
2023/06/28 03:07:18;;;;;;;14.55;10.73;;;;;;;;;;4938886;29;20126;-86
2023/06/28 03:09:45;;;;;;;10.93;10.02;;;;;;;;;;4939122;29;20574;-87
2023/06/28 03:12:13;;;;;;;11.32;10.32;;;;;;;;;;4938788;29;20110;-87
2023/06/28 03:14:40;;;;;;;11.68;10.50;;;;;;;;;;4938798;29;20106;-87
2023/06/28 03:17:07;;;;;;;14.05;10.32;;;;;;;;;;4938951;29;20062;-86
2023/06/28 03:19:35;;;;;;;10.13;9.23;;;;;;;;;;4939073;29;20054;-87
2023/06/28 03:22:02;;;;;;;10.68;9.63;;;;;;;;;;4955646;29;20381;-88
2023/06/28 03:24:30;;;;;;;10.07;9.07;;;;;;;;;;4939032;29;20082;-87
2023/06/28 03:26:57;;;;;;;11.63;10.02;;;;;;;;;;4937954;29;20102;-87
2023/06/28 03:29:25;;;;;;;11.65;9.57;;;;;;;;;;4955499;29;20043;-86
2023/06/28 03:31:52;;;;;;;12.93;9.38;;;;;;;;;;4938450;29;20047;-86
2023/06/28 03:34:20;;;;;;;10.55;9.65;;;;;;;;;;4955512;29;20078;-89
2023/06/28 03:36:47;;;;;;;11.18;8.75;;;;;;;;;;4938681;29;20058;-89
2023/06/28 03:39:30;;;;;;;8.55;7.95;;;;;;;;;;4940577;29;20065;-87
2023/06/28 03:41:58;;;;;;;10.38;8.70;;;;;;;;;;4955160;29;20126;-87
2023/06/28 03:44:25;;;;;;;9.60;8.70;;;;;;;;;;4938590;29;20404;-87
2023/06/28 03:46:52;;;;;;;10.85;8.32;;;;;;;;;;4955201;29;20102;-87
2023/06/28 03:49:19;;;;;;;8.73;7.97;;;;;;;;;;4955199;28;20401;-88
2023/06/28 03:51:47;;;;;;;9.52;8.60;;;;;;;;;;4954593;29;20051;-87
2023/06/28 03:54:14;;;;;;;8.70;7.82;;;;;;;;;;4938262;29;20059;-87
2023/06/28 03:56:44;;;;;;;10.57;7.95;;;;;;;;;;4938507;29;20062;-87
2023/06/28 03:59:11;;;;;;;9.50;7.78;;;;;;;;;;4938250;29;20051;-87
2023/06/28 04:01:38;;;;;;;8.65;7.78;;;;;;;;;;4938290;29;20106;-87
2023/06/28 04:04:06;;;;;;;8.88;8.15;;;;;;;;;;4937956;29;20047;-87
2023/06/28 04:06:33;;;;;;;9.13;7.60;;;;;;;;;;4937878;29;20047;-87
2023/06/28 04:09:00;;;;;;;7.53;6.90;;;;;;;;;;4938233;29;20063;-87
2023/06/28 04:11:28;;;;;;;9.38;7.97;;;;;;;;;;4954833;29;20102;-87
2023/06/28 04:13:55;;;;;;;9.57;7.68;;;;;;;;;;4937960;29;20087;-86
2023/06/28 04:16:22;;;;;;;6.88;6.35;;;;;;;;;;4938212;29;20496;-88
2023/06/28 04:18:49;;;;;;;6.68;6.05;;;;;;;;;;4954849;29;20051;-87
2023/06/28 04:21:16;;;;;;;7.60;6.95;;;;;;;;;;4937613;29;20047;-88
2023/06/28 04:23:44;;;;;;;6.22;5.82;;;;;;;;;;4938243;29;20051;-87
2023/06/28 04:26:12;;;;;;;7.72;6.15;;;;;;;;;;4937889;29;20047;-88
2023/06/28 04:28:39;;;;;;;6.35;5.85;;;;;;;;;;4938147;29;20058;-88
2023/06/28 04:31:07;;;;;;;7.78;6.05;;;;;;;;;;4954497;29;20047;-88
2023/06/28 04:33:35;;;;;;;5.95;5.30;;;;;;;;;;4938170;29;20544;-89
2023/06/28 04:36:02;;;;;;;6.45;5.95;;;;;;;;;;4937535;29;20110;-88
2023/06/28 04:38:32;;;;;;;7.80;5.78;;;;;;;;;;4939546;29;20130;-90
2023/06/28 04:41:00;;;;;;;6.05;5.50;;;;;;;;;;4958544;29;20069;-88
2023/06/28 04:43:39;;;;;;;5.38;5.03;;;;;;;;;;4958902;29;20114;-90
2023/06/28 04:46:11;;;;;;;5.65;4.93;;;;;;;;;;4941697;29;20587;-88
2023/06/28 04:48:40;;;;;;;6.63;6.03;;;;;;;;;;4941433;29;20497;-89
2023/06/28 04:51:07;;;;;;;6.13;5.63;;;;;;;;;;4958767;29;20062;-87
2023/06/28 04:53:34;;;;;;;6.20;5.60;;;;;;;;;;4941495;29;20396;-87
2023/06/28 04:56:02;;;;;;;5.93;5.50;;;;;;;;;;4941893;29;20106;-88
2023/06/28 04:58:29;;;;;;;5.22;4.93;;;;;;;;;;4941658;29;20458;-88
2023/06/28 05:00:56;;;;;;;5.35;4.95;;;;;;;;;;4941302;29;20065;-88
2023/06/28 05:03:28;;;;;;;5.50;5.15;;;;;;;;;;4942376;29;20055;-87
2023/06/28 05:05:56;;;;;;;5.57;5.18;;;;;;;;;;4958464;29;20055;-88
2023/06/28 05:08:24;;;;;;;14.00;4.80;;;;;;;;;;4941510;29;20047;-89
2023/06/28 05:10:52;;;;;;;5.15;4.80;;;;;;;;;;4958070;29;20137;-88
2023/06/28 05:13:19;;;;;;;5.22;4.72;;;;;;;;;;4941204;29;20105;-88
2023/06/28 05:15:46;;;;;;;4.85;4.55;;;;;;;;;;4941299;29;20471;-88
2023/06/28 05:18:14;;;;;;;6.68;6.00;;;;;;;;;;4958684;29;20051;-89
2023/06/28 05:20:41;;;;;;;5.43;4.93;;;;;;;;;;4941159;29;20047;-88
2023/06/28 05:23:16;;;;;;;4.90;4.60;;;;;;;;;;4958077;29;20421;-89
2023/06/28 05:25:44;;;;;;;5.13;4.70;;;;;;;;;;4957816;29;20047;-88
2023/06/28 05:28:12;;;;;;;4.70;4.40;;;;;;;;;;4941196;29;20059;-89
2023/06/28 05:30:40;;;;;;;6.85;4.65;;;;;;;;;;4941126;29;20062;-89
2023/06/28 05:33:08;;;;;;;5.35;4.18;;;;;;;;;;4957873;29;20047;-89
2023/06/28 05:35:36;;;;;;;4.93;4.32;;;;;;;;;;4941397;29;20051;-90
2023/06/28 05:38:04;;;;;;;5.53;4.68;;;;;;;;;;4940747;29;20488;-89
2023/06/28 05:40:32;;;;;;;3.65;3.40;;;;;;;;;;4957746;29;20062;-89
2023/06/28 05:43:00;;;;;;;4.97;3.08;;;;;;;;;;4941376;29;20055;-90
2023/06/28 05:45:28;;;;;;;4.93;2.70;;;;;;;;;;4940747;29;20141;-90
2023/06/28 05:47:56;;;;;;;3.20;3.00;;;;;;;;;;4940553;29;20444;-90
2023/06/28 05:50:24;;;;;;;4.05;3.65;;;;;;;;;;4940333;29;20455;-90
2023/06/28 05:52:51;;;;;;;3.60;3.30;;;;;;;;;;4940532;29;20433;-88
2023/06/28 05:55:18;;;;;;;4.60;4.22;;;;;;;;;;4940600;29;20492;-90
2023/06/28 05:57:46;;;;;;;7.20;5.18;;;;;;;;;;4957694;29;20057;-90
2023/06/28 06:00:13;;;;;;;7.90;5.30;;;;;;;;;;4940787;29;20455;-87
2023/06/28 06:02:41;;;;;;;14.20;7.95;;;;;;;;;;4940640;29;20069;-89
2023/06/28 06:05:13;;;;;;;18.10;7.25;;;;;;;;;;4939992;29;20047;-88
2023/06/28 06:07:40;;;;;;;15.82;6.38;;;;;;;;;;4940465;29;20058;-88
2023/06/28 06:10:09;;;;;;;13.88;5.80;;;;;;;;;;4940471;29;20051;-87
2023/06/28 06:12:37;;;;;;;17.40;5.50;;;;;;;;;;4940649;29;20472;-91
2023/06/28 06:15:05;;;;;;;9.13;4.60;;;;;;;;;;4957010;29;20507;-89
2023/06/28 06:17:32;;;;;;;5.35;3.45;;;;;;;;;;4940447;29;20055;-90
2023/06/28 06:20:00;;;;;;;5.97;3.28;;;;;;;;;;4939932;29;20047;-89
2023/06/28 06:22:28;;;;;;;10.75;4.15;;;;;;;;;;4940275;29;20079;-88
2023/06/28 06:24:55;;;;;;;10.95;3.75;;;;;;;;;;4940426;29;20510;-89
2023/06/28 06:27:23;;;;;;;14.52;4.95;;;;;;;;;;4940904;29;20062;-88
2023/06/28 06:29:50;;;;;;;5.20;2.75;;;;;;;;;;4940311;29;20047;-89
2023/06/28 06:32:17;;;;;;;4.45;3.50;;;;;;;;;;4941762;29;20115;-91
2023/06/28 06:34:45;;;;;;;10.02;3.63;;;;;;;;;;4942148;29;20564;-88
2023/06/28 06:37:12;;;;;;;7.38;4.47;;;;;;;;;;4940326;29;20468;-87
2023/06/28 06:39:40;;;;;;;13.25;4.50;;;;;;;;;;4940422;29;20081;-91
2023/06/28 06:42:08;;;;;;;13.82;4.68;;;;;;;;;;4939911;29;20408;-86
2023/06/28 06:44:35;;;;;;;20.65;5.20;;;;;;;;;;4940122;29;20066;-91
2023/06/28 06:47:03;;;;;;;19.63;5.57;;;;;;;;;;4940050;29;20078;-89
2023/06/28 06:49:31;;;;;;;11.65;4.22;;;;;;;;;;4939670;29;20063;-87
2023/06/28 06:51:59;;;;;;;13.15;4.20;;;;;;;;;;4940083;29;20047;-88
2023/06/28 06:54:29;;;;;;;20.63;5.10;;;;;;;;;;4940135;29;20106;-89
2023/06/28 06:56:57;;;;;;;19.90;5.43;;;;;;;;;;4939958;29;20077;-87
2023/06/28 06:59:26;;;;;;;19.48;5.50;;;;;;;;;;4939757;29;20111;-89
2023/06/28 07:01:56;;;;;;;18.10;4.82;;;;;;;;;;4939109;29;20048;-88
2023/06/28 07:04:24;;;;;;;23.45;4.68;;;;;;;;;;4940155;29;20055;-90
2023/06/28 07:06:52;;;;;;;8.65;4.10;;;;;;;;;;4939542;29;20672;-90
2023/06/28 07:09:19;;;;;;;21.17;4.13;;;;;;;;;;4939310;29;20090;-87
2023/06/28 07:11:47;;;;;;;11.70;3.50;;;;;;;;;;4938487;29;20051;-86
2023/06/28 07:14:14;;;;;;;7.72;2.67;;;;;;;;;;4938958;29;20054;-84
2023/06/28 07:16:45;;;;;;;7.68;2.20;;;;;;;;;;4939125;29;20106;-88
2023/06/28 07:19:13;;;;;;;5.53;2.05;;;;;;;;;;4938899;29;20138;-87
2023/06/28 07:21:43;;;;;;;3.38;2.10;;;;;;;;;;4939386;29;20119;-86
2023/06/28 07:24:10;;;;;;;6.25;2.00;;;;;;;;;;4938251;29;20074;-85
2023/06/28 07:26:38;;;;;;;2.80;1.80;;;;;;;;;;4939081;29;20086;-87
2023/06/28 07:29:05;;;;;;;5.53;1.75;;;;;;;;;;4938991;29;20059;-85
2023/06/28 07:31:32;;;;;;;3.33;1.60;;;;;;;;;;4938987;29;20066;-86
2023/06/28 07:34:06;;;;;;;4.50;1.73;;;;;;;;;;5112351;27;20369;-80
2023/06/28 07:36:33;;;;;;;2.83;1.63;;;;;;;;;;5111475;28;20044;-81
2023/06/28 07:39:10;;;;;;;4.40;1.75;;;;;;;;;;5111765;28;20047;-81
2023/06/28 07:41:37;;;;;;;6.28;1.90;;;;;;;;;;5110737;28;20052;-82
2023/06/28 07:44:10;;;;;;;4.43;1.52;;;;;;;;;;5110149;28;20044;-81
2023/06/28 07:46:38;;;;;;;5.20;1.55;;;;;;;;;;5110508;28;20047;-82
2023/06/28 07:49:21;;;;;;;7.70;1.48;;;;;;;;;;5110151;28;20405;-83
2023/06/28 07:51:49;;;;;;;2.83;1.33;;;;;;;;;;5111496;28;20116;-85
2023/06/28 07:54:17;;;;;;;3.00;1.00;;;;;;;;;;5114280;28;20160;-83
2023/06/28 07:56:59;;;;;;;8.45;1.73;;;;;;;;;;5115076;28;20123;-83
2023/06/28 07:59:27;;;;;;;8.40;2.42;;;;;;;;;;5114271;28;20055;-81
2023/06/28 08:01:57;;;;;;;4.95;1.52;;;;;;;;;;5116235;28;20079;-82
2023/06/28 08:04:28;;;;;;;3.55;1.33;;;;;;;;;;5115411;28;20048;-82
2023/06/28 08:06:57;;;;;;;;;;;;;;;;;;5115521;28;20079;-83
2023/06/28 08:09:28;;;;;;;5.72;0.90;;;;;;;;;;5114490;28;19924;-83
2023/06/28 08:11:55;;;;;;;2.92;0.73;;;;;;;;;;5113796;28;20048;-83
2023/06/28 08:14:26;;;;;;;3.10;0.60;;;;;;;;;;5115242;28;20374;-84
2023/06/28 08:16:54;;;;;;;5.32;1.02;;;;;;;;;;5115954;28;20043;-83
2023/06/28 08:19:25;;;;;;;3.50;0.90;;;;;;;;;;5115675;28;20079;-83
2023/06/28 08:21:52;;;;;;;2.50;0.93;;;;;;;;;;5116147;28;20047;-83
2023/06/28 08:24:20;;;;;;;0.88;0.50;;;;;;;;;;5116055;28;20141;-84
2023/06/28 08:26:47;;;;;;;2.40;0.50;;;;;;;;;;5115606;28;20040;-83
2023/06/28 08:29:22;;;;;;;2.60;0.60;;;;;;;;;;5117166;28;20358;-85
2023/06/28 08:31:50;;;;;;;2.50;1.00;;;;;;;;;;5117882;28;20040;-82
2023/06/28 08:34:17;;;;;;;2.13;0.90;;;;;;;;;;5125580;28;20058;-83
2023/06/28 08:36:44;;;;;;;3.35;0.63;;;;;;;;;;5111055;28;20051;-83
2023/06/28 08:39:38;;;;;;;2.30;0.57;;;;;;;;;;5110051;28;20047;-83
2023/06/28 08:42:05;;;;;;;0.50;0.33;;;;;;;;;;5109939;28;20625;-83
2023/06/28 08:44:33;;;;;;;1.60;0.50;;;;;;;;;;5101662;28;20052;-83
2023/06/28 08:47:01;;;;;;;3.22;0.80;;;;;;;;;;5096139;28;20051;-81
2023/06/28 08:49:38;;;;;;;5.07;0.82;;;;;;;;;;5096225;28;20074;-85
2023/06/28 08:52:05;;;;;;;3.00;0.95;;;;;;;;;;5095866;28;20071;-83
2023/06/28 08:54:34;;;;;;;2.92;0.73;;;;;;;;;;5097198;28;20051;-84
2023/06/28 08:57:02;;;;;;;3.40;0.50;;;;;;;;;;5097147;28;20043;-83
2023/06/28 08:59:39;;;;;;;2.75;0.63;;;;;;;;;;5039864;28;20640;-82
2023/06/28 09:02:10;;;;;;;0.85;0.43;;;;;;;;;;5038023;28;20049;-82
2023/06/28 09:04:50;;;;;;;5.38;0.85;;;;;;;;;;5054580;28;20128;-82
2023/06/28 09:07:19;;;;;;;2.08;0.40;;;;;;;;;;5038031;28;20483;-83
2023/06/28 09:09:50;;;;;;;1.58;0.50;;;;;;;;;;5038246;28;20045;-82
2023/06/28 09:12:18;;;;;;;2.85;0.63;;;;;;;;;;5037047;28;20450;-86
2023/06/28 09:14:46;;;;;;;2.17;0.50;;;;;;;;;;5037172;28;20049;-88
2023/06/28 09:17:13;;;;;;;0.90;0.45;;;;;;;;;;5049817;28;20486;-86
2023/06/28 09:19:45;;;;;;;1.38;0.43;;;;;;;;;;5095586;28;20044;-87
2023/06/28 09:22:12;;;;;;;1.88;0.47;;;;;;;;;;5097125;28;20044;-86
2023/06/28 09:24:40;;;;;;;1.48;0.50;;;;;;;;;;5095044;28;20455;-86
2023/06/28 09:27:08;;;;;;;3.60;0.82;;;;;;;;;;5094945;28;20051;-88
2023/06/28 09:29:35;;;;;;;0.45;0.35;;;;;;;;;;5095376;28;20048;-87
2023/06/28 09:32:02;;;;;;;2.15;0.50;;;;;;;;;;5095619;28;20072;-86
2023/06/28 09:34:30;;;;;;;4.72;0.70;;;;;;;;;;5096893;28;20094;-88
2023/06/28 09:36:58;;;;;;;3.38;2.75;;;;;;;;;;5096371;28;20043;-86
2023/06/28 09:39:26;;;;;;;6.82;0.90;;;;;;;;;;5097748;28;20041;-87
2023/06/28 09:41:54;;;;;;;1.02;0.70;;;;;;;;;;5098139;28;20412;-87
2023/06/28 09:44:28;;;;;;;0.50;0.47;;;;;;;;;;5095261;28;20135;-85
2023/06/28 09:47:15;;;;;;;2.25;0.60;;;;;;;;;;5094420;28;20052;-86
2023/06/28 09:49:42;;;;;;;2.63;0.55;;;;;;;;;;5094256;28;20075;-86
2023/06/28 09:52:18;;;;;;;4.22;2.67;;;;;;;;;;5094338;28;20378;-87
2023/06/28 09:54:50;;;;;;;4.13;0.90;;;;;;;;;;5095532;28;20044;-87
2023/06/28 09:57:17;;;;;;;1.25;0.93;;;;;;;;;;5093897;28;20055;-85
2023/06/28 09:59:54;;;;;;;2.10;1.90;;;;;;;;;;5094283;28;20052;-88
2023/06/28 10:02:26;;;;;;;4.65;1.00;;;;;;;;;;5094059;28;20040;-88
2023/06/28 10:04:57;;;;;;;1.42;0.52;;;;;;;;;;5095516;28;20060;-86
2023/06/28 10:07:24;;;;;;;3.28;0.80;;;;;;;;;;5094358;28;20083;-89
2023/06/28 10:09:55;;;;;;;0.40;0.40;;;;;;;;;;5094933;28;20139;-87
2023/06/28 10:12:25;;;;;;;0.80;0.77;;;;;;;;;;5093923;28;20040;-87
2023/06/28 10:14:54;;;;;;;1.85;0.70;;;;;;;;;;5096577;28;20094;-86
2023/06/28 10:17:28;;;;;;;0.80;0.73;;;;;;;;;;5094495;28;20048;-87
2023/06/28 10:20:09;;;;;;;0.93;0.43;;;;;;;;;;5094166;28;20061;-88
2023/06/28 10:22:39;;;;;;;1.15;0.70;;;;;;;;;;5094619;28;20481;-87
2023/06/28 10:25:08;;;;;;;1.40;0.90;;;;;;;;;;5094237;28;20448;-87
2023/06/28 10:27:40;;;;;;;1.85;0.70;;;;;;;;;;5094838;28;20065;-87
2023/06/28 10:30:12;;;;;;;2.03;0.73;;;;;;;;;;5096014;28;20114;-87
2023/06/28 10:33:09;;;;;;;4.57;0.80;;;;;;;;;;5094335;28;20048;-88
2023/06/28 10:35:40;;;;;;;3.88;0.75;;;;;;;;;;5093657;28;20394;-87
2023/06/28 10:38:15;;;;;;;1.40;0.50;;;;;;;;;;5093972;28;20071;-88
2023/06/28 10:41:01;;;;;;;0.80;0.60;;;;;;;;;;5093545;28;20043;-87
2023/06/28 10:43:29;;;;;;;0.43;0.43;;;;;;;;;;5093673;28;20075;-85
2023/06/28 10:45:57;;;;;;;3.03;0.93;;;;;;;;;;5093671;28;20048;-87
2023/06/28 10:48:27;;;;;;;2.17;0.70;;;;;;;;;;5093541;28;20052;-88
2023/06/28 10:50:58;;;;;;;1.75;0.60;;;;;;;;;;5113425;28;20052;-87
2023/06/28 10:53:33;;;;;;;1.30;0.57;;;;;;;;;;5100617;28;20040;-87
2023/06/28 10:56:13;;;;;;;1.83;0.57;;;;;;;;;;5095423;28;20059;-87
2023/06/28 10:58:47;;;;;;;8.75;1.30;;;;;;;;;;5094401;28;20493;-89
2023/06/28 11:01:33;;;;;;;2.72;0.75;;;;;;;;;;5093642;28;20048;-87
2023/06/28 11:04:16;;;;;;;4.18;0.73;;;;;;;;;;5093314;28;20051;-86
2023/06/28 11:06:43;;;;;;;0.82;0.45;;;;;;;;;;5093062;28;20044;-90
2023/06/28 11:09:15;;;;;;;1.45;0.70;;;;;;;;;;5092712;28;20048;-87
2023/06/28 11:11:52;;;;;;;2.20;0.77;;;;;;;;;;5092642;28;20047;-85
2023/06/28 11:14:21;;;;;;;4.03;0.57;;;;;;;;;;5092708;28;20485;-86
2023/06/28 11:16:49;;;;;;;1.63;0.60;;;;;;;;;;5093274;28;20481;-87
2023/06/28 11:19:29;;;;;;;0.93;0.50;;;;;;;;;;5092775;28;20044;-88
2023/06/28 11:21:57;;;;;;;1.35;0.57;;;;;;;;;;5094108;28;20044;-88
2023/06/28 11:24:34;;;;;;;0.95;0.60;;;;;;;;;;5092786;28;20054;-87
2023/06/28 11:27:15;;;;;;;1.05;0.75;;;;;;;;;;5092691;28;20070;-87
2023/06/28 11:29:57;;;;;;;1.35;0.47;;;;;;;;;;5092656;28;20048;-89
2023/06/28 11:32:46;;;;;;;2.47;0.50;;;;;;;;;;5092223;28;20103;-89
2023/06/28 11:35:22;;;;;;;2.58;0.77;;;;;;;;;;5092473;28;20097;-88
2023/06/28 11:37:52;;;;;;;1.13;0.88;;;;;;;;;;5093087;28;20052;-88
2023/06/28 11:40:21;;;;;;;3.40;0.90;;;;;;;;;;5093765;28;20055;-86
2023/06/28 11:43:24;;;;;;;1.77;0.80;;;;;;;;;;5092668;28;20044;-88
2023/06/28 11:45:51;;;;;;;2.72;0.63;;;;;;;;;;5092438;28;20051;-88
2023/06/28 11:48:22;;;;;;;1.00;0.68;;;;;;;;;;5092501;28;20048;-87
2023/06/28 11:50:56;;;;;;;1.02;0.60;;;;;;;;;;5092435;28;20048;-85
2023/06/28 11:53:36;;;;;;;2.72;0.57;;;;;;;;;;5092207;28;20052;-88
2023/06/28 11:56:06;;;;;;;1.70;0.70;;;;;;;;;;5093443;28;20514;-86
2023/06/28 11:58:36;;;;;;;0.70;0.50;;;;;;;;;;5092635;28;20046;-87
2023/06/28 12:01:05;;;;;;;0.82;0.80;;;;;;;;;;5092299;28;20048;-89
2023/06/28 12:03:42;;;;;;;1.25;0.55;;;;;;;;;;5092557;28;20048;-87
2023/06/28 12:06:10;;;;;;;1.92;0.82;;;;;;;;;;5092050;28;20508;-83
2023/06/28 12:08:40;;;;;;;1.35;0.45;;;;;;;;;;5084569;28;20048;-83
2023/06/28 12:11:11;;;;;;;2.55;0.65;;;;;;;;;;5082892;28;20048;-83
2023/06/28 12:13:40;;;;;;;2.13;0.98;;;;;;;;;;5085705;28;20044;-84
2023/06/28 12:16:12;;;;;;;0.90;0.70;;;;;;;;;;5082293;28;20378;-84
2023/06/28 12:18:59;;;;;;;2.28;0.63;;;;;;;;;;5081768;28;20045;-83
2023/06/28 12:21:30;;;;;;;2.17;1.10;;;;;;;;;;5088175;28;20040;-82
2023/06/28 12:24:31;;;;;;;1.65;0.60;;;;;;;;;;5082585;28;20076;-82
2023/06/28 12:27:21;;;;;;;0.60;0.60;;;;;;;;;;5057864;28;20056;-84
2023/06/28 12:29:50;;;;;;;1.25;0.80;;;;;;;;;;5061803;28;20052;-83
2023/06/28 12:32:41;;;;;;;0.88;0.57;;;;;;;;;;5076399;28;20087;-84
2023/06/28 12:35:22;;;;;;;1.73;0.73;;;;;;;;;;5075862;28;20049;-84
2023/06/28 12:37:57;;;;;;;1.60;0.70;;;;;;;;;;5075680;28;20048;-84
2023/06/28 12:40:28;;;;;;;1.20;0.70;;;;;;;;;;5075734;28;20413;-85
2023/06/28 12:43:13;;;;;;;2.45;0.80;;;;;;;;;;5076206;28;20048;-81
2023/06/28 12:45:45;;;;;;;1.23;0.90;;;;;;;;;;5078058;28;20075;-83
2023/06/28 12:48:28;;;;;;;2.45;0.60;;;;;;;;;;5079955;28;20044;-81
2023/06/28 12:50:55;;;;;;;2.60;0.60;;;;;;;;;;5080703;28;20058;-82
2023/06/28 12:53:25;;;;;;;3.60;1.10;;;;;;;;;;5083116;28;20068;-82
2023/06/28 12:55:52;;;;;;;0.70;0.70;;;;;;;;;;5081677;28;20044;-85
2023/06/28 12:58:28;;;;;;;0.73;0.73;;;;;;;;;;5079850;28;20406;-84
2023/06/28 13:00:55;;;;;;;1.33;0.82;;;;;;;;;;5080794;28;20098;-84
2023/06/28 13:03:43;;;;;;;0.50;0.43;;;;;;;;;;5079386;28;20497;-83
2023/06/28 13:06:18;;;;;;;3.45;0.70;;;;;;;;;;5088208;28;20498;-85
2023/06/28 13:08:46;;;;;;;1.02;0.60;;;;;;;;;;5079789;28;20509;-85
2023/06/28 13:11:14;;;;;;;1.13;0.60;;;;;;;;;;5079995;28;20123;-84
2023/06/28 13:13:42;;;;;;;1.23;0.60;;;;;;;;;;5081140;28;20414;-82
2023/06/28 13:16:13;;;;;;;0.75;0.57;;;;;;;;;;5081260;28;20056;-85
2023/06/28 13:18:40;;;;;;;0.98;0.70;;;;;;;;;;5078892;28;20059;-85
2023/06/28 13:21:30;;;;;;;1.38;0.70;;;;;;;;;;5076925;28;20052;-85
2023/06/28 13:23:57;;;;;;;1.33;0.45;;;;;;;;;;5096165;28;20052;-84
2023/06/28 13:26:26;;;;;;;1.20;1.10;;;;;;;;;;5097328;28;20052;-85
2023/06/28 13:28:53;;;;;;;0.80;0.80;;;;;;;;;;5084383;28;20094;-85
2023/06/28 13:31:21;;;;;;;1.30;0.68;;;;;;;;;;5101355;28;20048;-84
2023/06/28 13:33:48;;;;;;;3.10;0.80;;;;;;;;;;5081777;28;20413;-81
2023/06/28 13:36:24;;;;;;;0.90;0.70;;;;;;;;;;5098730;28;20490;-85
2023/06/28 13:38:53;;;;;;;1.48;0.88;;;;;;;;;;5097586;28;20128;-83
2023/06/28 13:41:21;;;;;;;0.70;0.70;;;;;;;;;;5096206;28;20044;-83
2023/06/28 13:43:48;;;;;;;1.13;0.77;;;;;;;;;;5096526;28;20056;-84
2023/06/28 13:46:22;;;;;;;1.27;0.70;;;;;;;;;;5095482;28;20114;-83
2023/06/28 13:48:49;;;;;;;1.60;0.80;;;;;;;;;;5095776;28;20049;-83
2023/06/28 13:51:21;;;;;;;1.10;0.65;;;;;;;;;;5095838;28;20444;-83
2023/06/28 13:53:48;;;;;;;1.65;0.70;;;;;;;;;;5096659;28;20044;-83
2023/06/28 13:56:15;;;;;;;1.23;0.80;;;;;;;;;;5097673;28;20040;-84
2023/06/28 13:58:43;;;;;;;3.72;0.85;;;;;;;;;;5079847;28;20051;-82
2023/06/28 14:01:10;;;;;;;2.30;0.98;;;;;;;;;;5095941;28;20353;-85
2023/06/28 14:03:39;;;;;;;1.13;0.90;;;;;;;;;;5093474;28;20132;-82
2023/06/28 14:06:06;;;;;;;1.58;0.70;;;;;;;;;;5098986;28;20448;-82
2023/06/28 14:08:38;;;;;;;2.60;0.70;;;;;;;;;;5099683;28;20052;-85
2023/06/28 14:11:05;;;;;;;0.80;0.60;;;;;;;;;;5100892;28;20074;-84
2023/06/28 14:13:32;;;;;;;2.15;0.70;;;;;;;;;;5097358;28;20056;-84
2023/06/28 14:16:02;;;;;;;4.72;0.80;;;;;;;;;;5098385;28;20071;-84
2023/06/28 14:18:29;;;;;;;2.70;0.80;;;;;;;;;;5100697;28;20051;-84
2023/06/28 14:20:57;;;;;;;0.85;0.85;;;;;;;;;;5100752;28;20889;-83
2023/06/28 14:23:24;;;;;;;1.42;0.75;;;;;;;;;;5098662;28;20028;-86
2023/06/28 14:25:52;;;;;;;2.85;0.90;;;;;;;;;;5091604;28;20052;-87
2023/06/28 14:28:21;;;;;;;3.65;1.10;;;;;;;;;;5091474;28;20048;-87
2023/06/28 14:30:49;;;;;;;2.42;0.82;;;;;;;;;;5075120;28;20098;-88
2023/06/28 14:33:19;;;;;;;1.73;0.80;;;;;;;;;;5077342;28;20048;-88
2023/06/28 14:35:47;;;;;;;0.60;0.60;;;;;;;;;;5088561;28;20040;-88
2023/06/28 14:38:19;;;;;;;1.35;0.98;;;;;;;;;;5089073;28;20067;-88
2023/06/28 14:40:46;;;;;;;2.30;1.00;;;;;;;;;;5092616;28;20140;-89
2023/06/28 14:43:14;;;;;;;5.18;1.20;;;;;;;;;;5093607;28;20044;-87
2023/06/28 14:45:41;;;;;;;2.83;1.38;;;;;;;;;;5092968;28;20134;-86
2023/06/28 14:48:10;;;;;;;1.63;0.70;;;;;;;;;;5093916;28;20052;-89
2023/06/28 14:50:38;;;;;;;0.88;0.80;;;;;;;;;;5088693;28;20048;-89